sensor_id;sensor_type;location;lat;lon;timestamp;pressure;altitude;pressure_sealevel;temperature;humidity
1616;BME280;801;47.982;7.810;2023-05-19T00:01:16;98982.50;;;14.63;100.00
1616;BME280;801;47.982;7.810;2023-05-19T00:03:51;98990.31;;;14.70;100.00
1616;BME280;801;47.982;7.810;2023-05-19T00:06:21;98983.06;;;14.60;100.00
1616;BME280;801;47.982;7.810;2023-05-19T00:08:53;98995.22;;;14.52;100.00
1616;BME280;801;47.982;7.810;2023-05-19T00:11:22;98986.28;;;14.52;100.00
1616;BME280;801;47.982;7.810;2023-05-19T00:13:48;98983.06;;;14.55;100.00
1616;BME280;801;47.982;7.810;2023-05-19T00:16:15;98984.16;;;14.49;100.00
1616;BME280;801;47.982;7.810;2023-05-19T00:18:42;98982.78;;;14.46;100.00
1616;BME280;801;47.982;7.810;2023-05-19T00:21:08;98990.59;;;14.53;100.00
1616;BME280;801;47.982;7.810;2023-05-19T00:23:35;98975.50;;;14.47;100.00
1616;BME280;801;47.982;7.810;2023-05-19T00:26:03;98977.72;;;14.29;100.00
1616;BME280;801;47.982;7.810;2023-05-19T00:28:29;98983.09;;;14.35;100.00
1616;BME280;801;47.982;7.810;2023-05-19T00:30:56;98973.38;;;14.28;100.00
1616;BME280;801;47.982;7.810;2023-05-19T00:33:22;98977.19;;;14.27;100.00
1616;BME280;801;47.982;7.810;2023-05-19T00:35:49;98980.19;;;14.05;100.00
1616;BME280;801;47.982;7.810;2023-05-19T00:38:15;98977.22;;;14.12;100.00
1616;BME280;801;47.982;7.810;2023-05-19T00:40:42;98977.75;;;14.14;100.00
1616;BME280;801;47.982;7.810;2023-05-19T00:43:10;98975.06;;;14.14;100.00
1616;BME280;801;47.982;7.810;2023-05-19T00:45:36;98973.41;;;14.13;100.00
1616;BME280;801;47.982;7.810;2023-05-19T00:48:03;98972.66;;;13.97;100.00
1616;BME280;801;47.982;7.810;2023-05-19T00:50:29;98968.63;;;13.84;100.00
1616;BME280;801;47.982;7.810;2023-05-19T00:52:56;98972.41;;;13.94;100.00
1616;BME280;801;47.982;7.810;2023-05-19T00:55:26;98968.88;;;13.98;100.00
1616;BME280;801;47.982;7.810;2023-05-19T00:57:54;98963.72;;;14.02;100.00
1616;BME280;801;47.982;7.810;2023-05-19T01:00:23;98972.09;;;14.05;100.00
1616;BME280;801;47.982;7.810;2023-05-19T01:02:49;98963.44;;;14.03;100.00
1616;BME280;801;47.982;7.810;2023-05-19T01:05:16;98958.34;;;13.91;100.00
1616;BME280;801;47.982;7.810;2023-05-19T01:07:43;98955.06;;;14.00;100.00
1616;BME280;801;47.982;7.810;2023-05-19T01:10:11;98956.97;;;13.99;100.00
1616;BME280;801;47.982;7.810;2023-05-19T01:12:38;98939.47;;;13.86;100.00
1616;BME280;801;47.982;7.810;2023-05-19T01:15:06;98942.72;;;13.73;100.00
1616;BME280;801;47.982;7.810;2023-05-19T01:17:39;98938.38;;;13.82;100.00
1616;BME280;801;47.982;7.810;2023-05-19T01:20:14;98936.50;;;13.78;100.00
1616;BME280;801;47.982;7.810;2023-05-19T01:23:00;98941.59;;;13.79;100.00
1616;BME280;801;47.982;7.810;2023-05-19T01:25:57;98937.28;;;13.83;100.00
1616;BME280;801;47.982;7.810;2023-05-19T01:28:52;98932.97;;;13.62;100.00
1616;BME280;801;47.982;7.810;2023-05-19T01:31:25;98938.66;;;13.76;100.00
1616;BME280;801;47.982;7.810;2023-05-19T01:33:53;98941.38;;;13.60;100.00
1616;BME280;801;47.982;7.810;2023-05-19T01:36:21;98934.09;;;13.71;100.00
1616;BME280;801;47.982;7.810;2023-05-19T01:38:50;98941.34;;;13.81;100.00
1616;BME280;801;47.982;7.810;2023-05-19T01:41:17;98934.84;;;13.82;100.00
1616;BME280;801;47.982;7.810;2023-05-19T01:43:45;98939.19;;;13.78;100.00
1616;BME280;801;47.982;7.810;2023-05-19T01:46:13;98934.06;;;13.76;100.00
1616;BME280;801;47.982;7.810;2023-05-19T01:48:41;98932.47;;;13.60;100.00
1616;BME280;801;47.982;7.810;2023-05-19T01:51:08;98936.25;;;13.69;100.00
1616;BME280;801;47.982;7.810;2023-05-19T01:53:35;98936.78;;;13.61;100.00
1616;BME280;801;47.982;7.810;2023-05-19T01:56:01;98931.38;;;13.66;100.00
1616;BME280;801;47.982;7.810;2023-05-19T01:58:34;98929.78;;;13.60;100.00
1616;BME280;801;47.982;7.810;2023-05-19T02:01:09;98931.91;;;13.27;100.00
1616;BME280;801;47.982;7.810;2023-05-19T02:03:52;98935.72;;;13.46;100.00
1616;BME280;801;47.982;7.810;2023-05-19T02:06:29;98931.38;;;13.45;100.00
1616;BME280;801;47.982;7.810;2023-05-19T02:09:02;98930.31;;;13.46;100.00
1616;BME280;801;47.982;7.810;2023-05-19T02:11:35;98928.66;;;13.25;100.00
1616;BME280;801;47.982;7.810;2023-05-19T02:14:07;98928.97;;;13.28;100.00
1616;BME280;801;47.982;7.810;2023-05-19T02:16:37;98929.78;;;13.29;100.00
1616;BME280;801;47.982;7.810;2023-05-19T02:19:19;98938.09;;;13.27;100.00
1616;BME280;801;47.982;7.810;2023-05-19T02:21:45;98943.19;;;13.03;100.00
1616;BME280;801;47.982;7.810;2023-05-19T02:24:11;98941.63;;;13.23;100.00
1616;BME280;801;47.982;7.810;2023-05-19T02:26:38;98935.66;;;13.26;100.00
1616;BME280;801;47.982;7.810;2023-05-19T02:29:04;98938.38;;;13.11;100.00
1616;BME280;801;47.982;7.810;2023-05-19T02:31:31;98936.44;;;12.85;100.00
1616;BME280;801;47.982;7.810;2023-05-19T02:33:57;98944.84;;;13.15;100.00
1616;BME280;801;47.982;7.810;2023-05-19T02:36:25;98940.81;;;13.33;100.00
1616;BME280;801;47.982;7.810;2023-05-19T02:38:52;98934.09;;;13.35;100.00
1616;BME280;801;47.982;7.810;2023-05-19T02:41:18;98929.50;;;13.41;100.00
1616;BME280;801;47.982;7.810;2023-05-19T02:43:46;98931.13;;;13.47;100.00
1616;BME280;801;47.982;7.810;2023-05-19T02:46:12;98928.69;;;13.40;100.00
1616;BME280;801;47.982;7.810;2023-05-19T02:48:39;98929.75;;;13.08;100.00
1616;BME280;801;47.982;7.810;2023-05-19T02:51:05;98933.50;;;12.97;100.00
1616;BME280;801;47.982;7.810;2023-05-19T02:53:33;98926.75;;;13.00;100.00
1616;BME280;801;47.982;7.810;2023-05-19T02:56:00;98923.78;;;12.91;100.00
1616;BME280;801;47.982;7.810;2023-05-19T02:58:26;98921.09;;;13.06;100.00
1616;BME280;801;47.982;7.810;2023-05-19T03:00:53;98927.56;;;13.05;100.00
1616;BME280;801;47.982;7.810;2023-05-19T03:03:20;98929.75;;;13.08;100.00
1616;BME280;801;47.982;7.810;2023-05-19T03:05:46;98922.69;;;12.87;100.00
1616;BME280;801;47.982;7.810;2023-05-19T03:08:13;98919.22;;;13.02;100.00
1616;BME280;801;47.982;7.810;2023-05-19T03:10:41;98922.59;;;12.56;100.00
1616;BME280;801;47.982;7.810;2023-05-19T03:13:07;98927.75;;;12.63;100.00
1616;BME280;801;47.982;7.810;2023-05-19T03:15:34;98924.44;;;12.40;100.00
1616;BME280;801;47.982;7.810;2023-05-19T03:18:00;98928.53;;;12.53;100.00
1616;BME280;801;47.982;7.810;2023-05-19T03:20:27;98925.53;;;12.44;100.00
1616;BME280;801;47.982;7.810;2023-05-19T03:22:54;98927.69;;;12.42;100.00
1616;BME280;801;47.982;7.810;2023-05-19T03:25:21;98920.34;;;12.28;100.00
1616;BME280;801;47.982;7.810;2023-05-19T03:27:49;98924.38;;;12.25;100.00
1616;BME280;801;47.982;7.810;2023-05-19T03:30:15;98927.63;;;12.27;100.00
1616;BME280;801;47.982;7.810;2023-05-19T03:32:42;98931.03;;;12.12;100.00
1616;BME280;801;47.982;7.810;2023-05-19T03:35:08;98928.94;;;12.19;100.00
1616;BME280;801;47.982;7.810;2023-05-19T03:37:35;98930.59;;;12.31;100.00
1616;BME280;801;47.982;7.810;2023-05-19T03:40:02;98930.63;;;12.41;100.00
1616;BME280;801;47.982;7.810;2023-05-19T03:42:29;98930.53;;;12.10;100.00
1616;BME280;801;47.982;7.810;2023-05-19T03:44:57;98916.19;;;12.04;100.00
1616;BME280;801;47.982;7.810;2023-05-19T03:47:24;98927.22;;;12.03;100.00
1616;BME280;801;47.982;7.810;2023-05-19T03:49:50;98927.56;;;11.74;100.00
1616;BME280;801;47.982;7.810;2023-05-19T03:52:17;98933.13;;;11.95;100.00
1616;BME280;801;47.982;7.810;2023-05-19T03:54:43;98929.66;;;11.62;100.00
1616;BME280;801;47.982;7.810;2023-05-19T03:57:10;98933.16;;;11.62;100.00
1616;BME280;801;47.982;7.810;2023-05-19T03:59:36;98934.94;;;11.52;100.00
1616;BME280;801;47.982;7.810;2023-05-19T04:02:07;98937.91;;;11.50;100.00
1616;BME280;801;47.982;7.810;2023-05-19T04:04:33;98935.13;;;11.40;100.00
1616;BME280;801;47.982;7.810;2023-05-19T04:07:01;98926.78;;;11.36;100.00
1616;BME280;801;47.982;7.810;2023-05-19T04:09:28;98935.63;;;11.69;100.00
1616;BME280;801;47.982;7.810;2023-05-19T04:11:56;98935.06;;;11.67;100.00
1616;BME280;801;47.982;7.810;2023-05-19T04:14:22;98939.50;;;11.46;100.00
1616;BME280;801;47.982;7.810;2023-05-19T04:16:49;98939.31;;;11.58;100.00
1616;BME280;801;47.982;7.810;2023-05-19T04:19:16;98943.03;;;11.52;100.00
1616;BME280;801;47.982;7.810;2023-05-19T04:21:43;98939.97;;;11.75;100.00
1616;BME280;801;47.982;7.810;2023-05-19T04:24:09;98948.59;;;11.77;100.00
1616;BME280;801;47.982;7.810;2023-05-19T04:26:36;98949.28;;;11.57;100.00
1616;BME280;801;47.982;7.810;2023-05-19T04:29:06;98948.25;;;11.31;100.00
1616;BME280;801;47.982;7.810;2023-05-19T04:31:34;98952.47;;;11.22;100.00
1616;BME280;801;47.982;7.810;2023-05-19T04:34:01;98945.56;;;11.31;100.00
1616;BME280;801;47.982;7.810;2023-05-19T04:36:29;98950.16;;;11.36;100.00
1616;BME280;801;47.982;7.810;2023-05-19T04:38:55;98946.88;;;11.29;100.00
1616;BME280;801;47.982;7.810;2023-05-19T04:41:26;98951.88;;;11.15;100.00
1616;BME280;801;47.982;7.810;2023-05-19T04:43:53;98950.34;;;11.24;100.00
1616;BME280;801;47.982;7.810;2023-05-19T04:46:21;98949.53;;;11.24;100.00
1616;BME280;801;47.982;7.810;2023-05-19T04:48:48;98950.72;;;11.06;100.00
1616;BME280;801;47.982;7.810;2023-05-19T04:51:15;98945.94;;;11.13;100.00
1616;BME280;801;47.982;7.810;2023-05-19T04:53:43;98947.91;;;11.22;100.00
1616;BME280;801;47.982;7.810;2023-05-19T04:56:09;98949.56;;;10.96;100.00
1616;BME280;801;47.982;7.810;2023-05-19T04:58:39;98953.69;;;11.09;100.00
1616;BME280;801;47.982;7.810;2023-05-19T05:01:05;98958.19;;;10.98;100.00
1616;BME280;801;47.982;7.810;2023-05-19T05:03:33;98957.25;;;11.15;100.00
1616;BME280;801;47.982;7.810;2023-05-19T05:06:00;98956.63;;;11.35;100.00
1616;BME280;801;47.982;7.810;2023-05-19T05:08:26;98961.22;;;11.34;100.00
1616;BME280;801;47.982;7.810;2023-05-19T05:10:56;98952.31;;;11.34;100.00
1616;BME280;801;47.982;7.810;2023-05-19T05:13:23;98960.50;;;11.17;100.00
1616;BME280;801;47.982;7.810;2023-05-19T05:15:50;98960.59;;;11.27;100.00
1616;BME280;801;47.982;7.810;2023-05-19T05:18:19;98958.16;;;11.26;100.00
1616;BME280;801;47.982;7.810;2023-05-19T05:20:46;98958.38;;;11.19;100.00
1616;BME280;801;47.982;7.810;2023-05-19T05:23:13;98952.56;;;11.32;100.00
1616;BME280;801;47.982;7.810;2023-05-19T05:25:41;98955.72;;;11.24;100.00
1616;BME280;801;47.982;7.810;2023-05-19T05:28:09;98962.38;;;11.49;100.00
1616;BME280;801;47.982;7.810;2023-05-19T05:30:36;98961.84;;;11.47;100.00
1616;BME280;801;47.982;7.810;2023-05-19T05:33:02;98958.63;;;11.50;100.00
1616;BME280;801;47.982;7.810;2023-05-19T05:35:29;98959.13;;;11.47;100.00
1616;BME280;801;47.982;7.810;2023-05-19T05:37:55;98957.53;;;11.46;100.00
1616;BME280;801;47.982;7.810;2023-05-19T05:40:22;98956.47;;;11.52;100.00
1616;BME280;801;47.982;7.810;2023-05-19T05:42:48;98959.50;;;11.60;100.00
1616;BME280;801;47.982;7.810;2023-05-19T05:45:16;98955.25;;;11.64;100.00
1616;BME280;801;47.982;7.810;2023-05-19T05:47:43;98951.28;;;11.72;100.00
1616;BME280;801;47.982;7.810;2023-05-19T05:50:12;98966.91;;;11.75;100.00
1616;BME280;801;47.982;7.810;2023-05-19T05:52:40;98959.94;;;11.84;100.00
1616;BME280;801;47.982;7.810;2023-05-19T05:55:08;98956.38;;;12.11;100.00
1616;BME280;801;47.982;7.810;2023-05-19T05:57:35;98952.56;;;11.70;100.00
1616;BME280;801;47.982;7.810;2023-05-19T06:00:02;98958.03;;;11.42;100.00
1616;BME280;801;47.982;7.810;2023-05-19T06:02:32;98959.28;;;11.67;100.00
1616;BME280;801;47.982;7.810;2023-05-19T06:04:59;98951.53;;;11.71;100.00
1616;BME280;801;47.982;7.810;2023-05-19T06:07:26;98957.75;;;11.76;100.00
1616;BME280;801;47.982;7.810;2023-05-19T06:09:53;98963.91;;;12.14;100.00
1616;BME280;801;47.982;7.810;2023-05-19T06:12:20;98952.06;;;12.10;100.00
1616;BME280;801;47.982;7.810;2023-05-19T06:14:48;98946.56;;;11.52;100.00
1616;BME280;801;47.982;7.810;2023-05-19T06:17:14;98951.97;;;11.95;100.00
1616;BME280;801;47.982;7.810;2023-05-19T06:19:42;98955.19;;;11.92;100.00
1616;BME280;801;47.982;7.810;2023-05-19T06:22:08;98953.22;;;12.24;100.00
1616;BME280;801;47.982;7.810;2023-05-19T06:24:35;98960.44;;;12.19;100.00
1616;BME280;801;47.982;7.810;2023-05-19T06:27:02;98953.75;;;12.21;100.00
1616;BME280;801;47.982;7.810;2023-05-19T06:29:28;98951.59;;;12.23;100.00
1616;BME280;801;47.982;7.810;2023-05-19T06:31:55;98959.00;;;12.54;100.00
1616;BME280;801;47.982;7.810;2023-05-19T06:34:21;98956.47;;;12.27;100.00
1616;BME280;801;47.982;7.810;2023-05-19T06:36:49;98951.47;;;12.03;100.00
1616;BME280;801;47.982;7.810;2023-05-19T06:39:19;98953.75;;;12.21;100.00
1616;BME280;801;47.982;7.810;2023-05-19T06:41:46;98946.22;;;12.23;100.00
1616;BME280;801;47.982;7.810;2023-05-19T06:44:14;98957.06;;;12.44;100.00
1616;BME280;801;47.982;7.810;2023-05-19T06:46:42;98949.00;;;12.54;100.00
1616;BME280;801;47.982;7.810;2023-05-19T06:49:10;98945.19;;;12.40;100.00
1616;BME280;801;47.982;7.810;2023-05-19T06:51:37;98944.97;;;12.52;100.00
1616;BME280;801;47.982;7.810;2023-05-19T06:54:05;98948.50;;;12.62;100.00
1616;BME280;801;47.982;7.810;2023-05-19T06:56:35;98952.00;;;12.63;100.00
1616;BME280;801;47.982;7.810;2023-05-19T06:59:01;98952.31;;;12.77;100.00
1616;BME280;801;47.982;7.810;2023-05-19T07:01:28;98952.28;;;12.61;100.00
1616;BME280;801;47.982;7.810;2023-05-19T07:03:55;98950.16;;;12.74;100.00
1616;BME280;801;47.982;7.810;2023-05-19T07:06:21;98947.47;;;12.69;100.00
1616;BME280;801;47.982;7.810;2023-05-19T07:08:47;98951.00;;;12.95;100.00
1616;BME280;801;47.982;7.810;2023-05-19T07:11:15;98944.56;;;13.11;100.00
1616;BME280;801;47.982;7.810;2023-05-19T07:13:42;98947.00;;;13.02;100.00
1616;BME280;801;47.982;7.810;2023-05-19T07:16:09;98940.78;;;13.12;100.00
1616;BME280;801;47.982;7.810;2023-05-19T07:18:35;98942.09;;;12.99;100.00
1616;BME280;801;47.982;7.810;2023-05-19T07:21:02;98945.91;;;13.19;100.00
1616;BME280;801;47.982;7.810;2023-05-19T07:23:28;98945.06;;;12.77;100.00
1616;BME280;801;47.982;7.810;2023-05-19T07:25:55;98938.28;;;12.75;100.00
1616;BME280;801;47.982;7.810;2023-05-19T07:28:23;98941.03;;;13.05;100.00
1616;BME280;801;47.982;7.810;2023-05-19T07:30:49;98934.59;;;13.27;100.00
1616;BME280;801;47.982;7.810;2023-05-19T07:33:17;98932.97;;;13.26;100.00
1616;BME280;801;47.982;7.810;2023-05-19T07:35:43;98935.72;;;13.36;100.00
1616;BME280;801;47.982;7.810;2023-05-19T07:38:10;98926.22;;;13.23;100.00
1616;BME280;801;47.982;7.810;2023-05-19T07:40:37;98930.56;;;13.35;100.00
1616;BME280;801;47.982;7.810;2023-05-19T07:43:03;98920.56;;;13.25;100.00
1616;BME280;801;47.982;7.810;2023-05-19T07:45:31;98908.19;;;13.29;100.00
1616;BME280;801;47.982;7.810;2023-05-19T07:47:58;98914.09;;;13.67;100.00
1616;BME280;801;47.982;7.810;2023-05-19T07:50:24;98911.69;;;13.45;100.00
1616;BME280;801;47.982;7.810;2023-05-19T07:52:51;98918.41;;;13.53;100.00
1616;BME280;801;47.982;7.810;2023-05-19T07:55:18;98908.16;;;13.49;100.00
1616;BME280;801;47.982;7.810;2023-05-19T07:57:47;98914.38;;;13.60;100.00
1616;BME280;801;47.982;7.810;2023-05-19T08:00:14;98907.31;;;13.85;100.00
1616;BME280;801;47.982;7.810;2023-05-19T08:02:43;98906.97;;;14.02;100.00
1616;BME280;801;47.982;7.810;2023-05-19T08:05:10;98909.16;;;14.05;100.00
1616;BME280;801;47.982;7.810;2023-05-19T08:07:37;98904.78;;;14.14;100.00
1616;BME280;801;47.982;7.810;2023-05-19T08:10:03;98906.91;;;14.27;100.00
1616;BME280;801;47.982;7.810;2023-05-19T08:12:30;98895.59;;;14.20;100.00
1616;BME280;801;47.982;7.810;2023-05-19T08:14:56;98891.78;;;14.21;100.00
1616;BME280;801;47.982;7.810;2023-05-19T08:17:23;98892.34;;;14.18;100.00
1616;BME280;801;47.982;7.810;2023-05-19T08:19:51;98886.28;;;14.42;100.00
1616;BME280;801;47.982;7.810;2023-05-19T08:22:17;98884.09;;;14.49;100.00
1616;BME280;801;47.982;7.810;2023-05-19T08:24:44;98876.50;;;14.56;100.00
1616;BME280;801;47.982;7.810;2023-05-19T08:27:10;98878.59;;;14.69;100.00
1616;BME280;801;47.982;7.810;2023-05-19T08:29:37;98871.91;;;14.57;100.00
1616;BME280;801;47.982;7.810;2023-05-19T08:32:04;98872.50;;;14.88;100.00
1616;BME280;801;47.982;7.810;2023-05-19T08:34:30;98869.81;;;14.88;100.00
1616;BME280;801;47.982;7.810;2023-05-19T08:36:58;98867.41;;;15.15;100.00
1616;BME280;801;47.982;7.810;2023-05-19T08:39:25;98871.38;;;15.28;100.00
1616;BME280;801;47.982;7.810;2023-05-19T08:41:52;98859.81;;;15.18;100.00
1616;BME280;801;47.982;7.810;2023-05-19T08:44:18;98861.75;;;15.46;100.00
1616;BME280;801;47.982;7.810;2023-05-19T08:46:46;98869.97;;;15.65;100.00
1616;BME280;801;47.982;7.810;2023-05-19T08:49:13;98866.75;;;15.29;100.00
1616;BME280;801;47.982;7.810;2023-05-19T08:51:46;98858.84;;;15.38;100.00
1616;BME280;801;47.982;7.810;2023-05-19T08:54:16;98862.31;;;15.43;100.00
1616;BME280;801;47.982;7.810;2023-05-19T08:56:45;98864.38;;;15.81;100.00
1616;BME280;801;47.982;7.810;2023-05-19T08:59:13;98850.47;;;15.63;100.00
1616;BME280;801;47.982;7.810;2023-05-19T09:01:41;98850.09;;;15.75;100.00
1616;BME280;801;47.982;7.810;2023-05-19T09:04:09;98861.22;;;15.73;100.00
1616;BME280;801;47.982;7.810;2023-05-19T09:06:36;98855.06;;;15.63;100.00
1616;BME280;801;47.982;7.810;2023-05-19T09:09:05;98854.91;;;15.83;100.00
1616;BME280;801;47.982;7.810;2023-05-19T09:11:33;98858.69;;;15.82;100.00
1616;BME280;801;47.982;7.810;2023-05-19T09:14:01;98860.94;;;15.75;100.00
1616;BME280;801;47.982;7.810;2023-05-19T09:16:28;98844.19;;;15.68;100.00
1616;BME280;801;47.982;7.810;2023-05-19T09:18:55;98843.88;;;15.69;100.00
1616;BME280;801;47.982;7.810;2023-05-19T09:21:26;98845.56;;;15.94;100.00
1616;BME280;801;47.982;7.810;2023-05-19T09:23:55;98849.06;;;15.95;100.00
1616;BME280;801;47.982;7.810;2023-05-19T09:26:21;98843.56;;;15.76;100.00
1616;BME280;801;47.982;7.810;2023-05-19T09:28:49;98839.56;;;15.68;100.00
1616;BME280;801;47.982;7.810;2023-05-19T09:31:16;98834.56;;;15.81;100.00
1616;BME280;801;47.982;7.810;2023-05-19T09:33:42;98836.22;;;15.82;100.00
1616;BME280;801;47.982;7.810;2023-05-19T09:36:09;98829.84;;;15.91;100.00
1616;BME280;801;47.982;7.810;2023-05-19T09:38:37;98832.31;;;16.12;100.00
1616;BME280;801;47.982;7.810;2023-05-19T09:41:06;98834.41;;;15.96;100.00
1616;BME280;801;47.982;7.810;2023-05-19T09:43:33;98833.66;;;15.90;100.00
1616;BME280;801;47.982;7.810;2023-05-19T09:46:03;98833.41;;;16.11;100.00
1616;BME280;801;47.982;7.810;2023-05-19T09:48:31;98830.69;;;16.11;100.00
1616;BME280;801;47.982;7.810;2023-05-19T09:50:59;98829.13;;;16.29;100.00
1616;BME280;801;47.982;7.810;2023-05-19T09:53:26;98822.97;;;16.23;100.00
1616;BME280;801;47.982;7.810;2023-05-19T09:55:55;98835.50;;;16.19;100.00
1616;BME280;801;47.982;7.810;2023-05-19T09:58:23;98824.66;;;16.57;100.00
1616;BME280;801;47.982;7.810;2023-05-19T10:00:50;98834.56;;;16.48;97.28
1616;BME280;801;47.982;7.810;2023-05-19T10:03:20;98831.91;;;16.43;98.46
1616;BME280;801;47.982;7.810;2023-05-19T10:05:48;98832.50;;;16.39;98.77
1616;BME280;801;47.982;7.810;2023-05-19T10:08:16;98836.97;;;16.68;99.75
1616;BME280;801;47.982;7.810;2023-05-19T10:10:45;98830.81;;;16.63;98.23
1616;BME280;801;47.982;7.810;2023-05-19T10:13:12;98830.09;;;16.57;97.77
1616;BME280;801;47.982;7.810;2023-05-19T10:15:40;98826.84;;;16.55;98.08
1616;BME280;801;47.982;7.810;2023-05-19T10:18:08;98828.31;;;16.66;97.68
1616;BME280;801;47.982;7.810;2023-05-19T10:20:36;98836.38;;;16.71;98.94
1616;BME280;801;47.982;7.810;2023-05-19T10:23:03;98836.09;;;16.92;97.97
1616;BME280;801;47.982;7.810;2023-05-19T10:25:30;98838.16;;;16.62;99.00
1616;BME280;801;47.982;7.810;2023-05-19T10:28:02;98826.03;;;16.73;99.72
1616;BME280;801;47.982;7.810;2023-05-19T10:30:33;98831.25;;;16.89;99.11
1616;BME280;801;47.982;7.810;2023-05-19T10:33:03;98822.28;;;16.69;97.47
1616;BME280;801;47.982;7.810;2023-05-19T10:35:52;98822.19;;;16.79;97.07
1616;BME280;801;47.982;7.810;2023-05-19T10:38:30;98832.09;;;17.03;97.27
1616;BME280;801;47.982;7.810;2023-05-19T10:41:03;98822.97;;;16.80;98.21
1616;BME280;801;47.982;7.810;2023-05-19T10:43:42;98828.19;;;17.09;94.21
1616;BME280;801;47.982;7.810;2023-05-19T10:46:09;98820.63;;;17.39;91.63
1616;BME280;801;47.982;7.810;2023-05-19T10:48:36;98831.81;;;17.51;87.18
1616;BME280;801;47.982;7.810;2023-05-19T10:51:05;98814.09;;;17.54;86.42
1616;BME280;801;47.982;7.810;2023-05-19T10:53:39;98824.91;;;17.87;86.01
1616;BME280;801;47.982;7.810;2023-05-19T10:56:10;98829.03;;;17.98;82.40
1616;BME280;801;47.982;7.810;2023-05-19T10:58:40;98823.63;;;17.84;83.15
1616;BME280;801;47.982;7.810;2023-05-19T11:01:16;98828.03;;;18.08;83.71
1616;BME280;801;47.982;7.810;2023-05-19T11:03:46;98822.41;;;18.04;84.85
1616;BME280;801;47.982;7.810;2023-05-19T11:06:25;98822.88;;;18.06;83.45
1616;BME280;801;47.982;7.810;2023-05-19T11:08:54;98826.19;;;18.17;81.21
1616;BME280;801;47.982;7.810;2023-05-19T11:11:21;98827.75;;;18.45;82.28
1616;BME280;801;47.982;7.810;2023-05-19T11:13:50;98817.50;;;18.42;80.48
1616;BME280;801;47.982;7.810;2023-05-19T11:16:26;98823.19;;;18.55;80.66
1616;BME280;801;47.982;7.810;2023-05-19T11:18:53;98819.16;;;18.88;78.39
1616;BME280;801;47.982;7.810;2023-05-19T11:21:21;98819.91;;;19.65;81.31
1616;BME280;801;47.982;7.810;2023-05-19T11:23:50;98821.88;;;19.11;77.11
1616;BME280;801;47.982;7.810;2023-05-19T11:26:40;98827.72;;;19.49;73.53
1616;BME280;801;47.982;7.810;2023-05-19T11:29:08;98825.47;;;19.83;74.73
1616;BME280;801;47.982;7.810;2023-05-19T11:31:36;98826.81;;;20.11;74.67
1616;BME280;801;47.982;7.810;2023-05-19T11:34:05;98817.19;;;19.65;72.60
1616;BME280;801;47.982;7.810;2023-05-19T11:36:35;98815.63;;;19.42;74.07
1616;BME280;801;47.982;7.810;2023-05-19T11:39:04;98811.41;;;19.58;72.42
1616;BME280;801;47.982;7.810;2023-05-19T11:41:31;98811.03;;;19.51;71.05
1616;BME280;801;47.982;7.810;2023-05-19T11:43:57;98811.63;;;19.70;70.77
1616;BME280;801;47.982;7.810;2023-05-19T11:46:24;98813.94;;;19.55;70.57
1616;BME280;801;47.982;7.810;2023-05-19T11:48:52;98811.88;;;19.60;69.46
1616;BME280;801;47.982;7.810;2023-05-19T11:51:20;98811.81;;;19.74;70.06
1616;BME280;801;47.982;7.810;2023-05-19T11:53:49;98809.66;;;20.11;68.79
1616;BME280;801;47.982;7.810;2023-05-19T11:56:15;98812.50;;;19.57;68.68
1616;BME280;801;47.982;7.810;2023-05-19T11:58:42;98806.69;;;19.81;70.27
1616;BME280;801;47.982;7.810;2023-05-19T12:01:08;98801.25;;;19.50;69.05
1616;BME280;801;47.982;7.810;2023-05-19T12:03:35;98811.00;;;19.74;74.37
1616;BME280;801;47.982;7.810;2023-05-19T12:06:02;98802.59;;;20.10;73.96
1616;BME280;801;47.982;7.810;2023-05-19T12:08:30;98805.84;;;20.47;72.43
1616;BME280;801;47.982;7.810;2023-05-19T12:10:58;98817.59;;;20.47;68.53
1616;BME280;801;47.982;7.810;2023-05-19T12:13:24;98813.81;;;21.30;66.97
1616;BME280;801;47.982;7.810;2023-05-19T12:15:51;98808.50;;;21.81;67.48
1616;BME280;801;47.982;7.810;2023-05-19T12:18:18;98810.25;;;21.86;62.51
1616;BME280;801;47.982;7.810;2023-05-19T12:20:45;98806.13;;;21.71;63.24
1616;BME280;801;47.982;7.810;2023-05-19T12:23:12;98812.38;;;21.80;61.99
1616;BME280;801;47.982;7.810;2023-05-19T12:25:39;98798.81;;;21.54;60.78
1616;BME280;801;47.982;7.810;2023-05-19T12:28:07;98811.56;;;21.32;60.98
1616;BME280;801;47.982;7.810;2023-05-19T12:30:33;98805.97;;;21.11;61.55
1616;BME280;801;47.982;7.810;2023-05-19T12:33:00;98805.66;;;21.13;61.70
1616;BME280;801;47.982;7.810;2023-05-19T12:35:27;98810.31;;;21.12;63.61
1616;BME280;801;47.982;7.810;2023-05-19T12:37:54;98804.25;;;20.55;62.48
1616;BME280;801;47.982;7.810;2023-05-19T12:40:21;98806.47;;;20.35;63.90
1616;BME280;801;47.982;7.810;2023-05-19T12:42:48;98808.56;;;20.56;64.59
1616;BME280;801;47.982;7.810;2023-05-19T12:45:19;98810.84;;;20.71;66.33
1616;BME280;801;47.982;7.810;2023-05-19T12:47:47;98801.22;;;20.82;64.62
1616;BME280;801;47.982;7.810;2023-05-19T12:50:14;98803.94;;;20.82;64.64
1616;BME280;801;47.982;7.810;2023-05-19T12:52:42;98801.75;;;21.31;67.52
1616;BME280;801;47.982;7.810;2023-05-19T12:55:09;98802.53;;;21.32;68.50
1616;BME280;801;47.982;7.810;2023-05-19T12:57:37;98799.94;;;20.71;66.01
1616;BME280;801;47.982;7.810;2023-05-19T13:00:06;98800.09;;;20.92;64.36
1616;BME280;801;47.982;7.810;2023-05-19T13:02:57;98802.00;;;20.74;63.20
1616;BME280;801;47.982;7.810;2023-05-19T13:05:24;98806.19;;;20.71;63.84
1616;BME280;801;47.982;7.810;2023-05-19T13:07:55;98794.28;;;20.41;63.12
1616;BME280;801;47.982;7.810;2023-05-19T13:10:23;98793.84;;;20.65;69.96
1616;BME280;801;47.982;7.810;2023-05-19T13:12:51;98795.44;;;20.58;65.38
1616;BME280;801;47.982;7.810;2023-05-19T13:15:18;98792.50;;;20.28;65.17
1616;BME280;801;47.982;7.810;2023-05-19T13:17:45;98791.44;;;20.64;63.60
1616;BME280;801;47.982;7.810;2023-05-19T13:20:13;98791.91;;;20.57;64.30
1616;BME280;801;47.982;7.810;2023-05-19T13:22:39;98782.25;;;20.94;60.53
1616;BME280;801;47.982;7.810;2023-05-19T13:25:07;98780.97;;;20.83;63.28
1616;BME280;801;47.982;7.810;2023-05-19T13:27:33;98787.72;;;20.60;62.01
1616;BME280;801;47.982;7.810;2023-05-19T13:30:00;98770.34;;;20.56;64.79